sensor_id;sensor_type;location;lat;lon;timestamp;P1;durP1;ratioP1;P2;durP2;ratioP2
69822;SDS011;57119;52.516;13.508;2022-10-31T00:01:54;37.87;;;21.40;;
69822;SDS011;57119;52.516;13.508;2022-10-31T00:04:19;35.40;;;21.63;;
69822;SDS011;57119;52.516;13.508;2022-10-31T00:06:45;38.67;;;22.33;;
69822;SDS011;57119;52.516;13.508;2022-10-31T00:09:10;37.95;;;22.65;;
69822;SDS011;57119;52.516;13.508;2022-10-31T00:11:36;37.77;;;22.30;;
69822;SDS011;57119;52.516;13.508;2022-10-31T00:14:01;37.97;;;21.93;;
69822;SDS011;57119;52.516;13.508;2022-10-31T00:16:27;37.75;;;23.27;;
69822;SDS011;57119;52.516;13.508;2022-10-31T00:19:00;34.30;;;22.70;;
69822;SDS011;57119;52.516;13.508;2022-10-31T00:21:27;32.83;;;21.30;;
69822;SDS011;57119;52.516;13.508;2022-10-31T00:23:53;38.92;;;22.20;;
69822;SDS011;57119;52.516;13.508;2022-10-31T00:26:18;28.53;;;20.83;;
69822;SDS011;57119;52.516;13.508;2022-10-31T00:28:44;38.65;;;21.88;;
69822;SDS011;57119;52.516;13.508;2022-10-31T00:31:10;33.57;;;22.03;;
69822;SDS011;57119;52.516;13.508;2022-10-31T00:33:36;33.13;;;20.48;;
69822;SDS011;57119;52.516;13.508;2022-10-31T00:36:03;36.90;;;21.77;;
69822;SDS011;57119;52.516;13.508;2022-10-31T00:38:30;33.72;;;21.65;;
69822;SDS011;57119;52.516;13.508;2022-10-31T00:40:56;35.03;;;21.13;;
69822;SDS011;57119;52.516;13.508;2022-10-31T00:43:21;33.80;;;20.57;;
69822;SDS011;57119;52.516;13.508;2022-10-31T00:45:46;27.77;;;20.03;;
69822;SDS011;57119;52.516;13.508;2022-10-31T00:48:12;33.00;;;21.00;;
69822;SDS011;57119;52.516;13.508;2022-10-31T00:50:37;37.30;;;22.20;;
69822;SDS011;57119;52.516;13.508;2022-10-31T00:53:03;38.13;;;22.05;;
69822;SDS011;57119;52.516;13.508;2022-10-31T00:55:29;36.67;;;22.20;;
69822;SDS011;57119;52.516;13.508;2022-10-31T00:57:54;36.70;;;22.03;;
69822;SDS011;57119;52.516;13.508;2022-10-31T01:00:20;33.40;;;21.03;;
69822;SDS011;57119;52.516;13.508;2022-10-31T01:02:45;32.67;;;21.47;;
69822;SDS011;57119;52.516;13.508;2022-10-31T01:05:10;33.23;;;19.93;;
69822;SDS011;57119;52.516;13.508;2022-10-31T01:07:37;35.17;;;21.57;;
69822;SDS011;57119;52.516;13.508;2022-10-31T01:10:04;34.58;;;21.33;;
69822;SDS011;57119;52.516;13.508;2022-10-31T01:12:35;30.30;;;20.75;;
69822;SDS011;57119;52.516;13.508;2022-10-31T01:15:04;38.70;;;21.13;;
69822;SDS011;57119;52.516;13.508;2022-10-31T01:17:30;34.33;;;21.35;;
69822;SDS011;57119;52.516;13.508;2022-10-31T01:19:55;32.33;;;19.73;;
69822;SDS011;57119;52.516;13.508;2022-10-31T01:22:20;37.90;;;20.87;;
69822;SDS011;57119;52.516;13.508;2022-10-31T01:24:45;34.77;;;19.97;;
69822;SDS011;57119;52.516;13.508;2022-10-31T01:27:11;33.13;;;20.60;;
69822;SDS011;57119;52.516;13.508;2022-10-31T01:29:36;33.13;;;20.47;;
69822;SDS011;57119;52.516;13.508;2022-10-31T01:32:02;31.97;;;19.93;;
69822;SDS011;57119;52.516;13.508;2022-10-31T01:34:27;32.33;;;20.93;;
69822;SDS011;57119;52.516;13.508;2022-10-31T01:36:52;29.43;;;19.43;;
69822;SDS011;57119;52.516;13.508;2022-10-31T01:39:18;30.88;;;19.88;;
69822;SDS011;57119;52.516;13.508;2022-10-31T01:41:48;35.00;;;20.20;;
69822;SDS011;57119;52.516;13.508;2022-10-31T01:49:40;33.20;;;20.17;;
69822;SDS011;57119;52.516;13.508;2022-10-31T01:52:24;32.00;;;19.63;;
69822;SDS011;57119;52.516;13.508;2022-10-31T01:57:34;31.37;;;19.27;;
69822;SDS011;57119;52.516;13.508;2022-10-31T02:00:06;32.88;;;20.48;;
69822;SDS011;57119;52.516;13.508;2022-10-31T02:02:34;30.60;;;19.73;;
69822;SDS011;57119;52.516;13.508;2022-10-31T02:05:01;30.70;;;17.83;;
69822;SDS011;57119;52.516;13.508;2022-10-31T02:07:39;31.48;;;18.90;;
69822;SDS011;57119;52.516;13.508;2022-10-31T02:10:10;32.72;;;18.83;;
69822;SDS011;57119;52.516;13.508;2022-10-31T02:12:36;32.17;;;19.60;;
69822;SDS011;57119;52.516;13.508;2022-10-31T02:15:02;29.60;;;18.90;;
69822;SDS011;57119;52.516;13.508;2022-10-31T02:17:29;38.15;;;20.23;;
69822;SDS011;57119;52.516;13.508;2022-10-31T02:20:09;34.90;;;19.65;;
69822;SDS011;57119;52.516;13.508;2022-10-31T02:25:42;28.15;;;17.02;;
69822;SDS011;57119;52.516;13.508;2022-10-31T02:33:56;34.75;;;19.65;;
69822;SDS011;57119;52.516;13.508;2022-10-31T02:36:28;30.57;;;17.80;;
69822;SDS011;57119;52.516;13.508;2022-10-31T02:44:36;38.22;;;21.63;;
69822;SDS011;57119;52.516;13.508;2022-10-31T02:47:11;35.33;;;18.75;;
69822;SDS011;57119;52.516;13.508;2022-10-31T02:49:43;32.70;;;19.57;;
69822;SDS011;57119;52.516;13.508;2022-10-31T02:52:14;29.80;;;18.42;;
69822;SDS011;57119;52.516;13.508;2022-10-31T02:54:58;30.67;;;17.67;;
69822;SDS011;57119;52.516;13.508;2022-10-31T02:57:28;36.87;;;18.47;;
69822;SDS011;57119;52.516;13.508;2022-10-31T03:00:00;30.73;;;18.55;;
69822;SDS011;57119;52.516;13.508;2022-10-31T03:08:21;30.43;;;18.47;;
69822;SDS011;57119;52.516;13.508;2022-10-31T03:11:02;38.08;;;18.67;;
69822;SDS011;57119;52.516;13.508;2022-10-31T03:13:34;31.52;;;18.35;;
69822;SDS011;57119;52.516;13.508;2022-10-31T03:19:03;32.72;;;18.70;;
69822;SDS011;57119;52.516;13.508;2022-10-31T03:21:55;30.43;;;17.57;;
69822;SDS011;57119;52.516;13.508;2022-10-31T03:24:27;31.80;;;17.17;;
69822;SDS011;57119;52.516;13.508;2022-10-31T03:26:56;30.77;;;18.13;;
69822;SDS011;57119;52.516;13.508;2022-10-31T03:29:25;32.08;;;18.25;;
69822;SDS011;57119;52.516;13.508;2022-10-31T03:31:57;28.67;;;17.90;;
69822;SDS011;57119;52.516;13.508;2022-10-31T03:34:29;31.93;;;18.73;;
69822;SDS011;57119;52.516;13.508;2022-10-31T03:36:56;32.65;;;18.45;;
69822;SDS011;57119;52.516;13.508;2022-10-31T03:39:25;29.10;;;18.02;;
69822;SDS011;57119;52.516;13.508;2022-10-31T03:41:56;33.08;;;19.38;;
69822;SDS011;57119;52.516;13.508;2022-10-31T03:44:27;27.75;;;17.02;;
69822;SDS011;57119;52.516;13.508;2022-10-31T03:46:55;30.33;;;18.43;;
69822;SDS011;57119;52.516;13.508;2022-10-31T03:49:21;31.75;;;18.70;;
69822;SDS011;57119;52.516;13.508;2022-10-31T03:54:44;28.65;;;17.38;;
69822;SDS011;57119;52.516;13.508;2022-10-31T03:57:27;31.63;;;18.80;;
69822;SDS011;57119;52.516;13.508;2022-10-31T03:59:59;29.70;;;18.33;;
69822;SDS011;57119;52.516;13.508;2022-10-31T04:02:30;30.58;;;18.08;;
69822;SDS011;57119;52.516;13.508;2022-10-31T04:04:57;30.27;;;18.45;;
69822;SDS011;57119;52.516;13.508;2022-10-31T04:07:24;29.65;;;17.33;;
69822;SDS011;57119;52.516;13.508;2022-10-31T04:09:53;28.60;;;17.13;;
69822;SDS011;57119;52.516;13.508;2022-10-31T04:12:20;31.10;;;17.83;;
69822;SDS011;57119;52.516;13.508;2022-10-31T04:14:47;33.67;;;18.83;;
69822;SDS011;57119;52.516;13.508;2022-10-31T04:17:15;30.33;;;17.55;;
69822;SDS011;57119;52.516;13.508;2022-10-31T04:19:41;30.63;;;19.20;;
69822;SDS011;57119;52.516;13.508;2022-10-31T04:22:07;32.90;;;18.37;;
69822;SDS011;57119;52.516;13.508;2022-10-31T04:24:32;30.03;;;17.33;;
69822;SDS011;57119;52.516;13.508;2022-10-31T04:26:58;29.63;;;17.77;;
69822;SDS011;57119;52.516;13.508;2022-10-31T04:29:23;29.80;;;17.33;;
69822;SDS011;57119;52.516;13.508;2022-10-31T04:31:48;28.43;;;17.53;;
69822;SDS011;57119;52.516;13.508;2022-10-31T04:34:14;32.27;;;18.33;;
69822;SDS011;57119;52.516;13.508;2022-10-31T04:36:39;32.45;;;17.33;;
69822;SDS011;57119;52.516;13.508;2022-10-31T04:39:04;31.13;;;17.27;;
69822;SDS011;57119;52.516;13.508;2022-10-31T04:41:29;27.60;;;16.80;;
69822;SDS011;57119;52.516;13.508;2022-10-31T04:43:55;32.87;;;17.43;;
69822;SDS011;57119;52.516;13.508;2022-10-31T04:46:20;30.53;;;18.27;;
69822;SDS011;57119;52.516;13.508;2022-10-31T04:48:45;29.47;;;16.77;;
69822;SDS011;57119;52.516;13.508;2022-10-31T04:51:11;29.13;;;15.93;;
69822;SDS011;57119;52.516;13.508;2022-10-31T04:53:36;28.60;;;16.43;;
69822;SDS011;57119;52.516;13.508;2022-10-31T04:56:02;30.00;;;16.90;;
69822;SDS011;57119;52.516;13.508;2022-10-31T04:58:27;27.63;;;16.57;;
69822;SDS011;57119;52.516;13.508;2022-10-31T05:00:53;33.45;;;16.88;;
69822;SDS011;57119;52.516;13.508;2022-10-31T05:03:20;28.38;;;16.50;;
69822;SDS011;57119;52.516;13.508;2022-10-31T05:05:45;32.97;;;18.10;;
69822;SDS011;57119;52.516;13.508;2022-10-31T05:08:10;28.70;;;16.17;;
69822;SDS011;57119;52.516;13.508;2022-10-31T05:10:36;30.97;;;16.37;;
69822;SDS011;57119;52.516;13.508;2022-10-31T05:13:02;29.80;;;16.67;;
69822;SDS011;57119;52.516;13.508;2022-10-31T05:15:28;29.38;;;16.00;;
69822;SDS011;57119;52.516;13.508;2022-10-31T05:17:54;28.63;;;15.68;;
69822;SDS011;57119;52.516;13.508;2022-10-31T05:20:21;32.13;;;17.52;;
69822;SDS011;57119;52.516;13.508;2022-10-31T05:22:49;28.48;;;16.33;;
69822;SDS011;57119;52.516;13.508;2022-10-31T05:25:16;35.00;;;17.47;;
69822;SDS011;57119;52.516;13.508;2022-10-31T05:27:44;29.90;;;16.77;;
69822;SDS011;57119;52.516;13.508;2022-10-31T05:30:11;37.85;;;19.38;;
69822;SDS011;57119;52.516;13.508;2022-10-31T05:32:45;33.20;;;19.27;;
69822;SDS011;57119;52.516;13.508;2022-10-31T05:35:13;37.75;;;18.88;;
69822;SDS011;57119;52.516;13.508;2022-10-31T05:37:41;37.50;;;19.53;;
69822;SDS011;57119;52.516;13.508;2022-10-31T05:40:08;33.58;;;18.33;;
69822;SDS011;57119;52.516;13.508;2022-10-31T05:42:35;36.25;;;20.02;;
69822;SDS011;57119;52.516;13.508;2022-10-31T05:45:01;50.67;;;23.10;;
69822;SDS011;57119;52.516;13.508;2022-10-31T05:47:26;37.10;;;21.37;;
69822;SDS011;57119;52.516;13.508;2022-10-31T05:49:52;47.05;;;21.70;;
69822;SDS011;57119;52.516;13.508;2022-10-31T05:52:18;41.17;;;21.77;;
69822;SDS011;57119;52.516;13.508;2022-10-31T05:54:43;46.17;;;21.58;;
69822;SDS011;57119;52.516;13.508;2022-10-31T05:57:09;41.50;;;20.80;;
69822;SDS011;57119;52.516;13.508;2022-10-31T05:59:35;39.55;;;20.63;;
69822;SDS011;57119;52.516;13.508;2022-10-31T06:02:00;46.97;;;22.53;;
69822;SDS011;57119;52.516;13.508;2022-10-31T06:04:26;42.23;;;22.47;;
69822;SDS011;57119;52.516;13.508;2022-10-31T06:06:51;43.90;;;23.73;;
69822;SDS011;57119;52.516;13.508;2022-10-31T06:09:16;48.07;;;23.30;;
69822;SDS011;57119;52.516;13.508;2022-10-31T06:11:42;45.17;;;23.88;;
69822;SDS011;57119;52.516;13.508;2022-10-31T06:14:07;57.80;;;27.47;;
69822;SDS011;57119;52.516;13.508;2022-10-31T06:16:33;45.47;;;23.27;;
69822;SDS011;57119;52.516;13.508;2022-10-31T06:18:58;45.33;;;23.15;;
69822;SDS011;57119;52.516;13.508;2022-10-31T06:21:23;45.57;;;22.27;;
69822;SDS011;57119;52.516;13.508;2022-10-31T06:23:49;44.53;;;21.97;;
69822;SDS011;57119;52.516;13.508;2022-10-31T06:26:14;44.33;;;23.70;;
69822;SDS011;57119;52.516;13.508;2022-10-31T06:28:39;43.60;;;22.17;;
69822;SDS011;57119;52.516;13.508;2022-10-31T06:31:05;43.60;;;21.80;;
69822;SDS011;57119;52.516;13.508;2022-10-31T06:33:32;42.78;;;21.33;;
69822;SDS011;57119;52.516;13.508;2022-10-31T06:35:58;41.42;;;21.33;;
69822;SDS011;57119;52.516;13.508;2022-10-31T06:38:24;36.73;;;21.10;;
69822;SDS011;57119;52.516;13.508;2022-10-31T06:40:51;43.33;;;21.52;;
69822;SDS011;57119;52.516;13.508;2022-10-31T06:43:16;38.07;;;20.30;;
69822;SDS011;57119;52.516;13.508;2022-10-31T06:45:41;41.10;;;20.67;;
69822;SDS011;57119;52.516;13.508;2022-10-31T06:48:07;38.50;;;20.13;;
69822;SDS011;57119;52.516;13.508;2022-10-31T06:50:32;31.60;;;18.73;;
69822;SDS011;57119;52.516;13.508;2022-10-31T06:52:58;36.20;;;17.92;;
69822;SDS011;57119;52.516;13.508;2022-10-31T06:55:24;36.53;;;19.60;;
69822;SDS011;57119;52.516;13.508;2022-10-31T06:57:54;35.65;;;17.73;;
69822;SDS011;57119;52.516;13.508;2022-10-31T07:00:21;32.95;;;17.20;;
69822;SDS011;57119;52.516;13.508;2022-10-31T07:03:03;36.70;;;16.60;;
69822;SDS011;57119;52.516;13.508;2022-10-31T07:05:31;33.42;;;17.13;;
69822;SDS011;57119;52.516;13.508;2022-10-31T07:07:57;30.42;;;16.00;;
69822;SDS011;57119;52.516;13.508;2022-10-31T07:10:24;26.67;;;15.75;;
69822;SDS011;57119;52.516;13.508;2022-10-31T07:12:58;31.93;;;15.97;;
69822;SDS011;57119;52.516;13.508;2022-10-31T07:15:28;28.27;;;15.88;;
69822;SDS011;57119;52.516;13.508;2022-10-31T07:17:59;28.73;;;15.40;;
69822;SDS011;57119;52.516;13.508;2022-10-31T07:20:25;27.52;;;15.43;;
69822;SDS011;57119;52.516;13.508;2022-10-31T07:22:50;30.60;;;15.63;;
69822;SDS011;57119;52.516;13.508;2022-10-31T07:25:16;34.73;;;15.53;;
69822;SDS011;57119;52.516;13.508;2022-10-31T07:27:41;28.60;;;13.97;;
69822;SDS011;57119;52.516;13.508;2022-10-31T07:30:08;23.33;;;13.52;;
69822;SDS011;57119;52.516;13.508;2022-10-31T07:32:44;26.52;;;12.70;;
69822;SDS011;57119;52.516;13.508;2022-10-31T07:35:14;25.73;;;12.63;;
69822;SDS011;57119;52.516;13.508;2022-10-31T07:37:45;22.38;;;12.52;;
69822;SDS011;57119;52.516;13.508;2022-10-31T07:40:12;18.83;;;11.10;;
69822;SDS011;57119;52.516;13.508;2022-10-31T07:42:38;21.98;;;11.32;;
69822;SDS011;57119;52.516;13.508;2022-10-31T07:45:04;21.03;;;11.33;;
69822;SDS011;57119;52.516;13.508;2022-10-31T07:47:38;25.35;;;12.38;;
69822;SDS011;57119;52.516;13.508;2022-10-31T07:50:20;20.85;;;11.93;;
69822;SDS011;57119;52.516;13.508;2022-10-31T07:52:47;21.23;;;10.85;;
69822;SDS011;57119;52.516;13.508;2022-10-31T07:55:13;19.83;;;10.35;;
69822;SDS011;57119;52.516;13.508;2022-10-31T07:57:39;24.20;;;11.23;;
69822;SDS011;57119;52.516;13.508;2022-10-31T08:00:05;20.73;;;11.15;;
69822;SDS011;57119;52.516;13.508;2022-10-31T08:02:31;22.77;;;11.87;;
69822;SDS011;57119;52.516;13.508;2022-10-31T08:04:56;24.35;;;11.10;;
69822;SDS011;57119;52.516;13.508;2022-10-31T08:07:22;23.70;;;11.77;;
69822;SDS011;57119;52.516;13.508;2022-10-31T08:09:47;19.83;;;10.20;;
69822;SDS011;57119;52.516;13.508;2022-10-31T08:12:12;21.03;;;10.23;;
69822;SDS011;57119;52.516;13.508;2022-10-31T08:14:37;20.63;;;12.33;;
69822;SDS011;57119;52.516;13.508;2022-10-31T08:17:03;21.90;;;11.73;;
69822;SDS011;57119;52.516;13.508;2022-10-31T08:19:28;20.50;;;12.30;;
69822;SDS011;57119;52.516;13.508;2022-10-31T08:21:53;22.93;;;12.47;;
69822;SDS011;57119;52.516;13.508;2022-10-31T08:24:23;25.37;;;13.03;;
69822;SDS011;57119;52.516;13.508;2022-10-31T08:26:48;24.98;;;12.70;;
69822;SDS011;57119;52.516;13.508;2022-10-31T08:29:14;25.20;;;12.13;;
69822;SDS011;57119;52.516;13.508;2022-10-31T08:31:40;22.27;;;12.73;;
69822;SDS011;57119;52.516;13.508;2022-10-31T08:34:06;25.33;;;12.93;;
69822;SDS011;57119;52.516;13.508;2022-10-31T08:36:31;23.58;;;12.75;;
69822;SDS011;57119;52.516;13.508;2022-10-31T08:38:56;28.67;;;13.07;;
69822;SDS011;57119;52.516;13.508;2022-10-31T08:41:22;24.43;;;11.10;;
69822;SDS011;57119;52.516;13.508;2022-10-31T08:43:47;30.93;;;13.83;;
69822;SDS011;57119;52.516;13.508;2022-10-31T08:46:13;24.77;;;13.57;;
69822;SDS011;57119;52.516;13.508;2022-10-31T08:48:38;27.30;;;13.10;;
69822;SDS011;57119;52.516;13.508;2022-10-31T08:51:04;21.67;;;12.93;;
69822;SDS011;57119;52.516;13.508;2022-10-31T08:53:29;24.08;;;12.13;;
69822;SDS011;57119;52.516;13.508;2022-10-31T08:55:55;22.57;;;12.03;;
69822;SDS011;57119;52.516;13.508;2022-10-31T08:58:21;20.67;;;12.18;;
69822;SDS011;57119;52.516;13.508;2022-10-31T09:00:48;25.23;;;12.75;;
69822;SDS011;57119;52.516;13.508;2022-10-31T09:03:20;23.23;;;12.55;;
69822;SDS011;57119;52.516;13.508;2022-10-31T09:05:47;23.33;;;13.33;;
69822;SDS011;57119;52.516;13.508;2022-10-31T09:08:13;24.05;;;13.18;;
69822;SDS011;57119;52.516;13.508;2022-10-31T09:10:39;23.98;;;14.13;;
69822;SDS011;57119;52.516;13.508;2022-10-31T09:13:06;24.83;;;13.23;;
69822;SDS011;57119;52.516;13.508;2022-10-31T09:15:36;27.20;;;13.73;;
69822;SDS011;57119;52.516;13.508;2022-10-31T09:18:03;24.42;;;13.30;;
69822;SDS011;57119;52.516;13.508;2022-10-31T09:20:30;26.60;;;14.10;;
69822;SDS011;57119;52.516;13.508;2022-10-31T09:22:57;24.17;;;13.73;;
69822;SDS011;57119;52.516;13.508;2022-10-31T09:25:27;25.83;;;13.60;;
69822;SDS011;57119;52.516;13.508;2022-10-31T09:27:56;20.83;;;12.83;;
69822;SDS011;57119;52.516;13.508;2022-10-31T09:30:22;22.38;;;13.93;;
69822;SDS011;57119;52.516;13.508;2022-10-31T09:32:48;21.92;;;13.00;;
69822;SDS011;57119;52.516;13.508;2022-10-31T09:35:19;24.30;;;13.52;;
69822;SDS011;57119;52.516;13.508;2022-10-31T09:37:44;25.20;;;15.03;;
69822;SDS011;57119;52.516;13.508;2022-10-31T09:40:10;22.37;;;13.63;;
69822;SDS011;57119;52.516;13.508;2022-10-31T09:42:42;22.63;;;13.53;;
69822;SDS011;57119;52.516;13.508;2022-10-31T09:45:21;21.70;;;14.05;;
69822;SDS011;57119;52.516;13.508;2022-10-31T09:53:03;24.27;;;14.25;;
69822;SDS011;57119;52.516;13.508;2022-10-31T09:55:36;26.42;;;15.18;;
69822;SDS011;57119;52.516;13.508;2022-10-31T09:58:04;27.02;;;15.30;;
69822;SDS011;57119;52.516;13.508;2022-10-31T10:00:30;26.70;;;14.67;;
69822;SDS011;57119;52.516;13.508;2022-10-31T10:08:53;25.13;;;13.73;;
69822;SDS011;57119;52.516;13.508;2022-10-31T10:14:26;26.23;;;15.20;;
69822;SDS011;57119;52.516;13.508;2022-10-31T10:17:11;25.90;;;15.40;;
69822;SDS011;57119;52.516;13.508;2022-10-31T10:33:09;28.42;;;15.38;;
69822;SDS011;57119;52.516;13.508;2022-10-31T10:35:45;23.70;;;13.57;;
69822;SDS011;57119;52.516;13.508;2022-10-31T10:41:15;27.63;;;15.45;;
69822;SDS011;57119;52.516;13.508;2022-10-31T10:43:42;27.40;;;16.65;;
69822;SDS011;57119;52.516;13.508;2022-10-31T10:51:46;27.45;;;15.07;;
69822;SDS011;57119;52.516;13.508;2022-10-31T10:54:41;27.43;;;15.60;;
69822;SDS011;57119;52.516;13.508;2022-10-31T10:59:47;26.13;;;16.02;;
69822;SDS011;57119;52.516;13.508;2022-10-31T11:02:17;26.33;;;16.43;;
69822;SDS011;57119;52.516;13.508;2022-10-31T11:04:45;28.30;;;16.33;;
69822;SDS011;57119;52.516;13.508;2022-10-31T11:07:14;22.67;;;15.90;;
69822;SDS011;57119;52.516;13.508;2022-10-31T11:09:40;27.27;;;16.67;;
69822;SDS011;57119;52.516;13.508;2022-10-31T11:12:21;23.67;;;16.48;;
69822;SDS011;57119;52.516;13.508;2022-10-31T11:14:53;28.50;;;17.63;;
69822;SDS011;57119;52.516;13.508;2022-10-31T11:17:34;25.88;;;16.60;;
69822;SDS011;57119;52.516;13.508;2022-10-31T11:20:04;28.90;;;17.30;;
69822;SDS011;57119;52.516;13.508;2022-10-31T11:22:36;26.17;;;17.60;;
69822;SDS011;57119;52.516;13.508;2022-10-31T11:25:14;28.43;;;17.17;;
69822;SDS011;57119;52.516;13.508;2022-10-31T11:30:45;29.45;;;17.30;;
69822;SDS011;57119;52.516;13.508;2022-10-31T11:33:22;26.23;;;16.70;;
69822;SDS011;57119;52.516;13.508;2022-10-31T11:35:53;32.47;;;17.60;;
69822;SDS011;57119;52.516;13.508;2022-10-31T11:38:20;30.63;;;17.35;;
69822;SDS011;57119;52.516;13.508;2022-10-31T11:40:55;28.67;;;17.02;;
69822;SDS011;57119;52.516;13.508;2022-10-31T11:43:29;32.80;;;17.52;;
69822;SDS011;57119;52.516;13.508;2022-10-31T11:45:55;26.80;;;17.37;;
69822;SDS011;57119;52.516;13.508;2022-10-31T11:48:22;29.17;;;16.25;;
69822;SDS011;57119;52.516;13.508;2022-10-31T11:50:51;31.73;;;17.23;;
69822;SDS011;57119;52.516;13.508;2022-10-31T11:53:20;27.85;;;17.20;;
69822;SDS011;57119;52.516;13.508;2022-10-31T11:55:59;29.02;;;17.17;;
69822;SDS011;57119;52.516;13.508;2022-10-31T11:58:28;29.35;;;18.20;;
69822;SDS011;57119;52.516;13.508;2022-10-31T12:00:54;30.23;;;17.83;;
69822;SDS011;57119;52.516;13.508;2022-10-31T12:06:07;28.50;;;17.10;;
69822;SDS011;57119;52.516;13.508;2022-10-31T12:08:38;30.70;;;18.00;;
69822;SDS011;57119;52.516;13.508;2022-10-31T12:11:20;26.60;;;17.90;;
69822;SDS011;57119;52.516;13.508;2022-10-31T12:25:12;34.67;;;18.77;;
69822;SDS011;57119;52.516;13.508;2022-10-31T12:39:00;29.95;;;17.42;;
69822;SDS011;57119;52.516;13.508;2022-10-31T12:41:56;31.13;;;19.10;;
69822;SDS011;57119;52.516;13.508;2022-10-31T12:47:33;25.70;;;17.00;;
69822;SDS011;57119;52.516;13.508;2022-10-31T12:53:08;25.55;;;17.25;;
69822;SDS011;57119;52.516;13.508;2022-10-31T12:58:42;29.00;;;16.15;;
69822;SDS011;57119;52.516;13.508;2022-10-31T13:01:13;31.15;;;18.30;;
69822;SDS011;57119;52.516;13.508;2022-10-31T13:03:52;30.80;;;18.40;;
69822;SDS011;57119;52.516;13.508;2022-10-31T13:06:27;30.10;;;19.17;;
69822;SDS011;57119;52.516;13.508;2022-10-31T13:08:59;28.05;;;18.25;;
69822;SDS011;57119;52.516;13.508;2022-10-31T13:11:29;26.92;;;18.40;;
69822;SDS011;57119;52.516;13.508;2022-10-31T13:14:01;31.95;;;16.98;;
69822;SDS011;57119;52.516;13.508;2022-10-31T13:16:46;28.33;;;17.37;;
69822;SDS011;57119;52.516;13.508;2022-10-31T13:19:17;34.97;;;18.67;;
69822;SDS011;57119;52.516;13.508;2022-10-31T13:22:29;24.42;;;16.75;;
69822;SDS011;57119;52.516;13.508;2022-10-31T13:24:51;29.58;;;16.80;;
69822;SDS011;57119;52.516;13.508;2022-10-31T13:27:28;28.55;;;17.08;;
69822;SDS011;57119;52.516;13.508;2022-10-31T13:30:03;29.80;;;16.87;;
69822;SDS011;57119;52.516;13.508;2022-10-31T13:32:45;29.00;;;17.52;;
69822;SDS011;57119;52.516;13.508;2022-10-31T13:35:23;29.13;;;17.08;;
69822;SDS011;57119;52.516;13.508;2022-10-31T13:40:37;29.58;;;17.10;;
69822;SDS011;57119;52.516;13.508;2022-10-31T13:46:20;28.98;;;15.82;;
69822;SDS011;57119;52.516;13.508;2022-10-31T13:48:50;26.40;;;15.30;;
69822;SDS011;57119;52.516;13.508;2022-10-31T13:51:23;31.13;;;17.87;;
69822;SDS011;57119;52.516;13.508;2022-10-31T13:56:56;32.13;;;16.33;;
69822;SDS011;57119;52.516;13.508;2022-10-31T13:59:22;28.17;;;16.60;;
69822;SDS011;57119;52.516;13.508;2022-10-31T14:01:50;28.33;;;16.67;;
69822;SDS011;57119;52.516;13.508;2022-10-31T14:04:19;33.40;;;16.10;;
69822;SDS011;57119;52.516;13.508;2022-10-31T14:09:37;32.72;;;16.83;;
69822;SDS011;57119;52.516;13.508;2022-10-31T14:12:06;34.63;;;15.90;;
69822;SDS011;57119;52.516;13.508;2022-10-31T14:14:39;31.25;;;16.83;;
69822;SDS011;57119;52.516;13.508;2022-10-31T14:17:13;29.25;;;16.98;;
69822;SDS011;57119;52.516;13.508;2022-10-31T14:19:43;32.03;;;17.17;;
69822;SDS011;57119;52.516;13.508;2022-10-31T14:22:21;28.33;;;16.35;;
69822;SDS011;57119;52.516;13.508;2022-10-31T14:24:48;29.55;;;16.88;;
69822;SDS011;57119;52.516;13.508;2022-10-31T14:29:46;33.55;;;19.15;;
69822;SDS011;57119;52.516;13.508;2022-10-31T14:34:41;31.08;;;15.15;;
69822;SDS011;57119;52.516;13.508;2022-10-31T14:48:24;29.48;;;15.30;;
69822;SDS011;57119;52.516;13.508;2022-10-31T14:51:24;29.25;;;14.18;;
69822;SDS011;57119;52.516;13.508;2022-10-31T14:54:00;26.58;;;13.50;;
69822;SDS011;57119;52.516;13.508;2022-10-31T14:56:27;24.65;;;14.40;;
69822;SDS011;57119;52.516;13.508;2022-10-31T14:58:57;31.97;;;14.13;;
69822;SDS011;57119;52.516;13.508;2022-10-31T15:01:30;25.17;;;14.60;;
69822;SDS011;57119;52.516;13.508;2022-10-31T15:04:02;27.60;;;14.65;;
69822;SDS011;57119;52.516;13.508;2022-10-31T15:07:05;27.73;;;14.75;;
69822;SDS011;57119;52.516;13.508;2022-10-31T15:09:37;28.77;;;14.75;;
69822;SDS011;57119;52.516;13.508;2022-10-31T15:12:25;30.10;;;14.23;;
69822;SDS011;57119;52.516;13.508;2022-10-31T15:14:52;30.42;;;14.70;;
69822;SDS011;57119;52.516;13.508;2022-10-31T15:17:18;26.08;;;14.15;;
69822;SDS011;57119;52.516;13.508;2022-10-31T15:19:45;24.40;;;13.23;;
69822;SDS011;57119;52.516;13.508;2022-10-31T15:22:18;30.87;;;16.60;;
69822;SDS011;57119;52.516;13.508;2022-10-31T15:24:49;31.48;;;17.50;;
69822;SDS011;57119;52.516;13.508;2022-10-31T15:27:21;41.78;;;22.77;;
69822;SDS011;57119;52.516;13.508;2022-10-31T15:29:55;32.50;;;19.23;;
69822;SDS011;57119;52.516;13.508;2022-10-31T15:32:43;37.70;;;20.15;;
69822;SDS011;57119;52.516;13.508;2022-10-31T15:35:10;40.53;;;20.83;;
69822;SDS011;57119;52.516;13.508;2022-10-31T15:37:43;39.85;;;19.88;;
69822;SDS011;57119;52.516;13.508;2022-10-31T15:40:14;38.10;;;20.97;;
69822;SDS011;57119;52.516;13.508;2022-10-31T15:42:41;35.67;;;19.65;;
69822;SDS011;57119;52.516;13.508;2022-10-31T15:47:38;37.65;;;20.63;;
69822;SDS011;57119;52.516;13.508;2022-10-31T15:50:44;34.83;;;18.40;;
69822;SDS011;57119;52.516;13.508;2022-10-31T15:53:05;40.40;;;20.55;;
69822;SDS011;57119;52.516;13.508;2022-10-31T15:55:44;41.35;;;20.92;;
69822;SDS011;57119;52.516;13.508;2022-10-31T15:58:19;40.95;;;21.83;;
69822;SDS011;57119;52.516;13.508;2022-10-31T16:00:45;36.60;;;20.57;;
69822;SDS011;57119;52.516;13.508;2022-10-31T16:03:30;43.50;;;22.85;;
69822;SDS011;57119;52.516;13.508;2022-10-31T16:05:57;47.85;;;24.20;;
69822;SDS011;57119;52.516;13.508;2022-10-31T16:13:26;48.72;;;24.60;;
69822;SDS011;57119;52.516;13.508;2022-10-31T16:15:55;45.85;;;23.58;;
69822;SDS011;57119;52.516;13.508;2022-10-31T16:18:26;43.85;;;23.52;;
69822;SDS011;57119;52.516;13.508;2022-10-31T16:20:54;42.78;;;23.75;;
69822;SDS011;57119;52.516;13.508;2022-10-31T16:23:21;43.87;;;23.57;;
69822;SDS011;57119;52.516;13.508;2022-10-31T16:25:49;50.70;;;25.60;;
69822;SDS011;57119;52.516;13.508;2022-10-31T16:28:16;55.55;;;27.67;;
69822;SDS011;57119;52.516;13.508;2022-10-31T16:30:45;50.47;;;26.15;;
69822;SDS011;57119;52.516;13.508;2022-10-31T16:35:48;46.40;;;23.40;;
69822;SDS011;57119;52.516;13.508;2022-10-31T16:38:14;42.53;;;22.77;;
69822;SDS011;57119;52.516;13.508;2022-10-31T16:40:39;39.50;;;21.83;;
69822;SDS011;57119;52.516;13.508;2022-10-31T16:43:08;43.70;;;22.13;;
69822;SDS011;57119;52.516;13.508;2022-10-31T16:45:36;41.67;;;21.38;;
69822;SDS011;57119;52.516;13.508;2022-10-31T16:48:03;41.67;;;21.43;;
69822;SDS011;57119;52.516;13.508;2022-10-31T16:50:36;44.47;;;22.58;;